SAZT/TDL METAR and TAF weather

Enter ICAO airport designator
Station Type Date Time Source
SAZT METAR 2019/11/12 20:35 UTC NOAA

SAZT 122035Z 32003KT 9999 BKN030 OVC070 20/19 Q1010


Station Type Date Time Source
SAZT Decoded METAR 2019/11/12 20:35 UTC NOAA

Tandil Aerodrome, Argentina (SAZT) 37-14S 059-15W 175M
Nov 12, 2019 - 03:35 PM EST / 2019.11.12 2035 UTC
Wind: from the NW (320 degrees) at 3 MPH (3 KT):0
Visibility: greater than 7 mile(s):0
Sky conditions: overcast
Temperature: 68 F (20 C)
Dew Point: 66 F (19 C)
Relative Humidity: 93%
Pressure (altimeter): 29.83 in. Hg (1010 hPa)
ob: SAZT 122035Z 32003KT 9999 BKN030 OVC070 20/19 Q1010
cycle: 20

Station Type Date Time Source
SAZT TAF UTC NOAA

Error!

Example: see airport list